Terminal Aerodrome Forecast
Issued by NWS Kansas City/Pleasant Hill, MO

Home | Current Version | Previous Version | Text Only | Print | Product List | Glossary On
Versions: 1 2 3 4 5 6 7 8 9 10 11 12 13 14
970
FTUS43 KEAX 141720
TAFMCI
TAF
KMCI 141720Z 1418/1518 34007KT P6SM OVC040
     FM150900 28005KT P6SM BKN050
     FM151200 28006KT P6SM SCT050=

USA.gov is the U.S. government's official web portal to all federal, state and local government web resources and services.